createdAt,value
2022-11-15T00:02:08.225Z,15.36
2022-11-15T00:04:53.273Z,15.43
2022-11-15T00:07:55.039Z,15.39
2022-11-15T00:10:41.283Z,15.39
2022-11-15T00:13:26.520Z,15.35
2022-11-15T00:16:12.198Z,15.26
2022-11-15T00:18:58.418Z,15.21
2022-11-15T00:21:43.647Z,15.19
2022-11-15T00:24:29.348Z,15.22
2022-11-15T00:27:14.813Z,15.17
2022-11-15T00:30:00.129Z,15.25
2022-11-15T00:32:45.404Z,15.16
2022-11-15T00:35:34.411Z,15.28
2022-11-15T00:38:20.068Z,15.15
2022-11-15T00:41:09.602Z,15.13
2022-11-15T00:43:55.215Z,15.14
2022-11-15T00:46:40.529Z,15.15
2022-11-15T00:49:25.757Z,15.17
2022-11-15T00:52:10.890Z,15.14
2022-11-15T00:54:56.547Z,15.17
2022-11-15T00:57:41.982Z,15.10
2022-11-15T01:00:27.122Z,15.10
2022-11-15T01:03:12.497Z,15.11
2022-11-15T01:06:00.429Z,15.14
2022-11-15T01:08:45.857Z,15.16
2022-11-15T01:11:31.303Z,15.18
2022-11-15T01:14:17.083Z,15.13
2022-11-15T01:17:03.793Z,15.10
2022-11-15T01:19:49.144Z,15.12
2022-11-15T01:22:34.619Z,15.13
2022-11-15T01:25:19.899Z,15.10
2022-11-15T01:28:05.217Z,15.12
2022-11-15T01:30:50.590Z,15.13
2022-11-15T01:33:39.587Z,15.13
2022-11-15T01:36:24.962Z,15.14
2022-11-15T01:39:10.043Z,15.11
2022-11-15T01:41:55.768Z,15.10
2022-11-15T01:44:42.861Z,15.03
2022-11-15T01:47:41.612Z,15.04
2022-11-15T01:50:32.697Z,15.11
2022-11-15T01:53:23.005Z,15.05
2022-11-15T01:56:12.533Z,15.02
2022-11-15T01:58:58.756Z,15.15
2022-11-15T02:01:44.566Z,15.09
2022-11-15T02:04:42.630Z,14.99
2022-11-15T02:07:30.745Z,15.09
2022-11-15T02:10:22.439Z,15.07
2022-11-15T02:13:07.821Z,15.00
2022-11-15T02:16:11.605Z,15.00
2022-11-15T02:19:09.625Z,14.93
2022-11-15T02:21:55.360Z,15.05
2022-11-15T02:25:12.641Z,14.94
2022-11-15T02:28:09.889Z,14.97
2022-11-15T02:31:07.083Z,14.94
2022-11-15T02:34:29.343Z,14.89
2022-11-15T02:37:38.350Z,14.98
2022-11-15T02:40:59.259Z,15.05
2022-11-15T02:44:00.020Z,15.06
2022-11-15T02:47:16.410Z,15.02
2022-11-15T02:50:11.199Z,15.04
2022-11-15T02:52:57.017Z,14.91
2022-11-15T02:55:52.960Z,15.02
2022-11-15T02:58:50.432Z,14.89
2022-11-15T03:01:47.642Z,14.87
2022-11-15T03:04:51.503Z,14.91
2022-11-15T03:08:00.863Z,14.90
2022-11-15T03:11:02.738Z,14.94
2022-11-15T03:14:03.556Z,14.84
2022-11-15T03:17:12.605Z,14.92
2022-11-15T03:20:02.254Z,14.91
2022-11-15T03:22:50.355Z,14.98
2022-11-15T03:25:40.235Z,14.90
2022-11-15T03:28:34.516Z,14.95
2022-11-15T03:31:39.796Z,14.93
2022-11-15T03:34:32.561Z,14.94
2022-11-15T03:37:21.776Z,14.89
2022-11-15T03:40:07.742Z,15.00
2022-11-15T03:43:11.476Z,14.99
2022-11-15T03:46:09.008Z,15.01
2022-11-15T03:49:04.277Z,14.91
2022-11-15T03:51:49.683Z,14.93
2022-11-15T03:54:34.735Z,14.98
2022-11-15T03:57:20.135Z,14.95
2022-11-15T04:00:06.415Z,14.95
2022-11-15T04:02:51.638Z,14.95
2022-11-15T04:05:36.757Z,14.87
2022-11-15T04:08:21.727Z,14.93
2022-11-15T04:11:07.119Z,14.90
2022-11-15T04:13:52.552Z,14.89
2022-11-15T04:16:43.505Z,14.91
2022-11-15T04:19:47.714Z,14.90
2022-11-15T04:22:51.307Z,14.94
2022-11-15T04:25:36.644Z,14.93
2022-11-15T04:28:22.815Z,14.85
2022-11-15T04:31:09.028Z,14.92
2022-11-15T04:33:54.911Z,14.86
2022-11-15T04:36:59.250Z,14.89
2022-11-15T04:39:44.846Z,14.86
2022-11-15T04:42:30.320Z,14.88
2022-11-15T04:45:15.917Z,14.82
2022-11-15T04:48:01.526Z,14.79
2022-11-15T04:50:49.369Z,14.71
2022-11-15T04:53:34.724Z,14.83
2022-11-15T04:56:20.427Z,14.80
2022-11-15T04:59:05.757Z,14.79
2022-11-15T05:01:51.038Z,14.82
2022-11-15T05:04:36.219Z,14.83
2022-11-15T05:07:21.775Z,14.81
2022-11-15T05:10:07.539Z,14.67
2022-11-15T05:12:52.898Z,14.64
2022-11-15T05:15:37.984Z,14.66
2022-11-15T05:18:23.911Z,14.67
2022-11-15T05:21:13.313Z,14.67
2022-11-15T05:23:58.772Z,14.69
2022-11-15T05:26:43.758Z,14.68
2022-11-15T05:29:28.978Z,14.66
2022-11-15T05:32:14.815Z,14.61
2022-11-15T05:34:59.813Z,14.62
2022-11-15T05:37:45.630Z,14.57
2022-11-15T05:40:51.773Z,14.57
2022-11-15T05:43:39.721Z,14.55
2022-11-15T05:46:25.118Z,14.53
2022-11-15T05:49:14.499Z,14.49
2022-11-15T05:52:00.022Z,14.61
2022-11-15T05:54:45.653Z,14.57
2022-11-15T05:57:49.229Z,14.51
2022-11-15T06:00:34.670Z,14.46
2022-11-15T06:03:19.756Z,14.53
2022-11-15T06:06:05.082Z,14.52
2022-11-15T06:08:50.577Z,14.54
2022-11-15T06:11:36.244Z,14.51
2022-11-15T06:14:21.694Z,14.50
2022-11-15T06:17:11.163Z,14.50
2022-11-15T06:19:56.997Z,14.53
2022-11-15T06:22:42.300Z,14.48
2022-11-15T06:25:28.968Z,14.47
2022-11-15T06:28:14.679Z,14.43
2022-11-15T06:31:07.690Z,14.45
2022-11-15T06:33:53.090Z,14.49
2022-11-15T06:36:38.642Z,14.44
2022-11-15T06:39:23.850Z,14.47
2022-11-15T06:42:10.267Z,14.50
2022-11-15T06:44:55.348Z,14.44
2022-11-15T06:47:47.749Z,14.39
2022-11-15T06:50:33.212Z,14.37
2022-11-15T06:53:19.199Z,14.39
2022-11-15T06:56:07.544Z,14.41
2022-11-15T06:58:52.626Z,14.41
2022-11-15T07:01:37.805Z,14.35
2022-11-15T07:04:22.859Z,14.34
2022-11-15T07:07:07.913Z,14.39
2022-11-15T07:09:53.214Z,14.38
2022-11-15T07:12:38.680Z,14.37
2022-11-15T07:15:26.162Z,14.35
2022-11-15T07:18:11.338Z,14.37
2022-11-15T07:20:56.726Z,14.39
2022-11-15T07:23:42.119Z,14.36
2022-11-15T07:26:27.695Z,14.35
2022-11-15T07:29:13.256Z,14.34
2022-11-15T07:31:58.835Z,14.33
2022-11-15T07:34:46.319Z,14.26
2022-11-15T07:37:32.447Z,14.24
2022-11-15T07:40:17.796Z,14.33
2022-11-15T07:43:05.431Z,14.37
2022-11-15T07:45:53.503Z,14.36
2022-11-15T07:48:44.756Z,14.39
2022-11-15T07:51:30.659Z,14.41
2022-11-15T07:54:16.182Z,14.46
2022-11-15T07:57:06.891Z,14.42
2022-11-15T07:59:53.165Z,14.38
2022-11-15T08:02:38.116Z,14.43
2022-11-15T08:05:23.349Z,14.40
2022-11-15T08:08:11.644Z,14.36
2022-11-15T08:10:59.290Z,14.40
2022-11-15T08:13:44.819Z,14.44
2022-11-15T08:16:30.009Z,14.47
2022-11-15T08:19:15.427Z,14.55
2022-11-15T08:22:00.617Z,14.73
2022-11-15T08:24:45.952Z,14.73
2022-11-15T08:27:31.588Z,14.74
2022-11-15T08:30:17.195Z,14.76
2022-11-15T08:33:02.522Z,14.79
2022-11-15T08:35:48.456Z,14.81
2022-11-15T08:38:33.807Z,14.86
2022-11-15T08:41:27.462Z,15.00
2022-11-15T08:44:13.110Z,15.01
2022-11-15T08:46:58.724Z,15.07
2022-11-15T08:49:44.094Z,15.15
2022-11-15T08:52:29.479Z,15.20
2022-11-15T08:55:17.377Z,15.25
2022-11-15T08:58:03.242Z,15.29
2022-11-15T09:00:48.420Z,15.35
2022-11-15T09:03:34.248Z,15.33
2022-11-15T09:06:19.734Z,15.43
2022-11-15T09:09:05.049Z,15.43
2022-11-15T09:11:51.730Z,15.46
2022-11-15T09:14:37.461Z,15.51
2022-11-15T09:20:28.919Z,15.57
2022-11-15T09:23:14.198Z,15.60
2022-11-15T09:26:02.226Z,15.61
2022-11-15T09:28:47.550Z,15.66
2022-11-15T09:31:32.472Z,15.73
2022-11-15T09:34:18.063Z,15.73
2022-11-15T09:37:03.429Z,15.76
2022-11-15T09:39:48.572Z,15.75
2022-11-15T09:42:48.753Z,15.83
2022-11-15T09:46:03.441Z,15.84
2022-11-15T09:49:01.395Z,15.86
2022-11-15T09:51:58.393Z,15.89
2022-11-15T09:54:52.189Z,15.93
2022-11-15T09:57:25.908Z,15.92
2022-11-15T10:03:10.542Z,15.96
2022-11-15T10:05:46.492Z,16.00
2022-11-15T10:08:51.433Z,16.02
2022-11-15T10:11:40.433Z,16.05
2022-11-15T10:14:25.898Z,16.02
2022-11-15T10:17:17.607Z,16.07
2022-11-15T10:19:51.969Z,16.10
2022-11-15T10:22:39.523Z,16.10
2022-11-15T10:25:09.581Z,16.09
2022-11-15T10:27:37.027Z,16.14
2022-11-15T10:30:11.271Z,16.13
2022-11-15T10:32:38.179Z,16.17
2022-11-15T10:35:35.593Z,16.16
2022-11-15T10:38:12.958Z,16.21
2022-11-15T10:40:41.473Z,16.23
2022-11-15T10:43:11.042Z,16.21
2022-11-15T10:45:39.552Z,16.24
2022-11-15T10:48:15.519Z,16.24
2022-11-15T10:50:45.341Z,16.26
2022-11-15T10:53:31.717Z,16.29
2022-11-15T10:56:04.015Z,16.30
2022-11-15T10:58:41.457Z,16.28
2022-11-15T11:01:14.034Z,16.34
2022-11-15T11:03:43.164Z,16.32
2022-11-15T11:06:16.197Z,16.34
2022-11-15T11:09:01.290Z,16.34
2022-11-15T11:11:47.822Z,16.33
2022-11-15T11:14:24.088Z,16.38
2022-11-15T11:17:19.152Z,16.38
2022-11-15T11:20:04.682Z,16.38
2022-11-15T11:22:55.908Z,16.43
2022-11-15T11:25:31.790Z,16.41
2022-11-15T11:28:04.329Z,16.47
2022-11-15T11:30:40.081Z,16.45
2022-11-15T11:33:22.689Z,16.47
2022-11-15T11:36:07.655Z,16.45
2022-11-15T11:38:40.292Z,16.47
2022-11-15T11:41:32.819Z,16.49
2022-11-15T11:44:38.178Z,16.52
2022-11-15T11:47:37.520Z,16.56
2022-11-15T11:50:12.620Z,16.53
2022-11-15T11:52:58.384Z,16.53
2022-11-15T11:55:34.161Z,16.52
2022-11-15T11:58:01.066Z,16.56
2022-11-15T12:00:29.525Z,16.51
2022-11-15T12:03:02.355Z,16.56
2022-11-15T12:05:40.382Z,16.55
2022-11-15T12:08:36.835Z,16.61
2022-11-15T12:11:17.012Z,16.56
2022-11-15T12:13:44.766Z,16.57
2022-11-15T12:16:15.775Z,16.56
2022-11-15T12:18:48.735Z,16.56
2022-11-15T12:21:38.493Z,16.59
2022-11-15T12:24:38.524Z,16.65
2022-11-15T12:27:08.214Z,16.65
2022-11-15T12:29:43.064Z,16.64
2022-11-15T12:32:25.351Z,16.64
2022-11-15T12:34:53.479Z,16.67
2022-11-15T12:37:45.138Z,16.64
2022-11-15T12:41:10.840Z,16.65
2022-11-15T12:43:42.943Z,16.66
2022-11-15T12:46:22.195Z,16.71
2022-11-15T12:48:54.575Z,16.74
2022-11-15T12:51:24.033Z,16.72
2022-11-15T12:53:50.822Z,16.72
2022-11-15T12:56:17.774Z,16.71
2022-11-15T12:59:06.231Z,16.72
2022-11-15T13:01:39.023Z,16.73
2022-11-15T13:04:21.098Z,16.71
2022-11-15T13:06:52.949Z,16.76
2022-11-15T13:09:35.084Z,16.73
2022-11-15T13:12:05.735Z,16.68
2022-11-15T13:14:38.475Z,16.76
2022-11-15T13:17:21.158Z,16.73
2022-11-15T13:19:54.251Z,16.78
2022-11-15T13:22:39.385Z,16.78
2022-11-15T13:25:16.977Z,16.77
2022-11-15T13:27:43.718Z,16.81
2022-11-15T13:30:27.835Z,16.81
2022-11-15T13:32:55.008Z,16.78
2022-11-15T13:35:27.744Z,16.75
2022-11-15T13:37:57.040Z,16.76
2022-11-15T13:40:31.196Z,16.76
2022-11-15T13:42:59.396Z,16.78
2022-11-15T13:45:27.877Z,16.81
2022-11-15T13:47:59.181Z,16.78
2022-11-15T13:50:33.945Z,16.79
2022-11-15T13:53:03.698Z,16.78
2022-11-15T13:55:34.027Z,16.81
2022-11-15T13:58:07.187Z,16.89
2022-11-15T14:00:39.984Z,16.86
2022-11-15T14:03:28.909Z,16.87
2022-11-15T14:06:16.121Z,16.85
2022-11-15T14:09:25.636Z,16.84
2022-11-15T14:11:54.855Z,16.83
2022-11-15T14:14:24.154Z,16.81
2022-11-15T14:17:01.638Z,16.84
2022-11-15T14:19:28.534Z,16.83
2022-11-15T14:22:21.767Z,16.84
2022-11-15T14:25:13.776Z,16.86
2022-11-15T14:27:42.341Z,16.86
2022-11-15T14:30:18.787Z,16.85
2022-11-15T14:32:48.818Z,16.88
2022-11-15T14:35:19.445Z,16.86
2022-11-15T14:37:46.564Z,16.89
2022-11-15T14:40:18.423Z,16.87
2022-11-15T14:42:46.780Z,16.88
2022-11-15T14:45:19.945Z,16.91
2022-11-15T14:47:47.139Z,16.91
2022-11-15T14:50:16.420Z,16.93
2022-11-15T14:52:43.761Z,16.89
2022-11-15T14:55:37.005Z,16.91
2022-11-15T14:58:05.041Z,16.87
2022-11-15T15:00:35.260Z,16.91
2022-11-15T15:03:03.439Z,16.97
2022-11-15T15:05:39.487Z,16.98
2022-11-15T15:08:06.907Z,16.95
2022-11-15T15:10:40.794Z,16.94
2022-11-15T15:13:20.634Z,16.94
2022-11-15T15:15:48.968Z,16.98
2022-11-15T15:18:16.626Z,16.95
2022-11-15T15:20:44.864Z,16.96
2022-11-15T15:23:17.622Z,16.99
2022-11-15T15:25:46.564Z,16.94
2022-11-15T15:28:14.075Z,16.98
2022-11-15T15:30:41.506Z,17.00
2022-11-15T15:33:08.406Z,16.99
2022-11-15T15:35:36.408Z,16.98
2022-11-15T15:38:03.730Z,16.97
2022-11-15T15:40:32.693Z,16.97
2022-11-15T15:43:00.726Z,17.01
2022-11-15T15:45:28.818Z,16.97
2022-11-15T15:47:55.854Z,17.00
2022-11-15T15:50:25.332Z,17.03
2022-11-15T15:52:53.684Z,17.03
2022-11-15T15:55:21.349Z,17.05
2022-11-15T15:57:48.812Z,17.06
2022-11-15T16:00:16.881Z,17.07
2022-11-15T16:02:43.873Z,17.05
2022-11-15T16:05:11.680Z,17.04
2022-11-15T16:07:39.015Z,17.06
2022-11-15T16:10:17.446Z,17.07
2022-11-15T16:12:45.112Z,17.01
2022-11-15T16:15:12.031Z,17.01
2022-11-15T16:17:45.000Z,17.02
2022-11-15T16:20:31.416Z,17.03
2022-11-15T16:23:00.433Z,17.03
2022-11-15T16:25:31.526Z,17.02
2022-11-15T16:27:58.377Z,17.07
2022-11-15T16:30:25.107Z,17.02
2022-11-15T16:32:52.046Z,17.00
2022-11-15T16:35:19.287Z,16.99
2022-11-15T16:37:47.288Z,17.06
2022-11-15T16:40:31.874Z,17.00
2022-11-15T16:43:00.027Z,17.03
2022-11-15T16:45:29.277Z,17.05
2022-11-15T16:47:56.682Z,17.04
2022-11-15T16:50:26.089Z,17.09
2022-11-15T16:52:53.906Z,17.09
2022-11-15T16:55:22.305Z,17.02
2022-11-15T16:57:50.019Z,17.00
2022-11-15T17:00:19.240Z,17.01
2022-11-15T17:02:50.269Z,17.03
2022-11-15T17:05:20.410Z,17.06
2022-11-15T17:07:50.543Z,17.08
2022-11-15T17:10:17.628Z,17.04
2022-11-15T17:12:44.660Z,17.00
2022-11-15T17:15:14.497Z,17.05
2022-11-15T17:17:42.121Z,17.06
2022-11-15T17:20:16.809Z,17.04
2022-11-15T17:22:43.827Z,17.05
2022-11-15T17:25:10.725Z,17.10
2022-11-15T17:27:37.548Z,17.10
2022-11-15T17:30:05.216Z,17.13
2022-11-15T17:32:32.081Z,17.04
2022-11-15T17:34:58.900Z,17.05
2022-11-15T17:37:25.654Z,17.05
2022-11-15T17:39:52.512Z,17.12
2022-11-15T17:42:19.288Z,17.06
2022-11-15T17:44:46.117Z,17.09
2022-11-15T17:47:15.650Z,17.15
2022-11-15T17:49:42.532Z,17.18
2022-11-15T17:52:09.517Z,17.19
2022-11-15T17:54:36.410Z,17.19
2022-11-15T17:57:03.503Z,17.18
2022-11-15T17:59:30.296Z,17.13
2022-11-15T18:01:57.080Z,17.17
2022-11-15T18:04:28.392Z,17.14
2022-11-15T18:06:56.474Z,17.21
2022-11-15T18:09:24.745Z,17.17
2022-11-15T18:11:54.485Z,17.19
2022-11-15T18:14:21.569Z,17.24
2022-11-15T18:16:48.603Z,17.21
2022-11-15T18:19:15.392Z,17.21
2022-11-15T18:21:56.385Z,17.22
2022-11-15T18:24:29.786Z,17.23
2022-11-15T18:26:57.800Z,17.27
2022-11-15T18:29:25.052Z,17.22
2022-11-15T18:31:55.805Z,17.27
2022-11-15T18:34:24.682Z,17.15
2022-11-15T18:36:53.959Z,17.18
2022-11-15T18:39:20.752Z,17.19
2022-11-15T18:41:48.301Z,17.15
2022-11-15T18:44:16.086Z,17.18
2022-11-15T18:46:45.077Z,17.22
2022-11-15T18:49:32.647Z,17.16
2022-11-15T18:51:59.454Z,17.12
2022-11-15T18:54:31.034Z,17.11
2022-11-15T18:56:58.718Z,17.15
2022-11-15T18:59:27.652Z,17.15
2022-11-15T19:01:54.365Z,17.20
2022-11-15T19:04:22.269Z,17.21
2022-11-15T19:06:50.697Z,17.18
2022-11-15T19:09:21.095Z,17.13
2022-11-15T19:11:51.606Z,17.13
2022-11-15T19:14:19.149Z,17.10
2022-11-15T19:16:52.416Z,17.11
2022-11-15T19:19:24.687Z,17.13
2022-11-15T19:21:52.143Z,17.13
2022-11-15T19:24:19.418Z,17.12
2022-11-15T19:26:46.960Z,17.12
2022-11-15T19:29:14.200Z,17.11
2022-11-15T19:31:42.013Z,17.16
2022-11-15T19:34:08.933Z,17.14
2022-11-15T19:36:38.557Z,17.14
2022-11-15T19:39:09.917Z,17.16
2022-11-15T19:41:38.850Z,17.17
2022-11-15T19:44:06.879Z,17.09
2022-11-15T19:46:34.702Z,17.10
2022-11-15T19:49:10.748Z,17.16
2022-11-15T19:51:39.055Z,17.23
2022-11-15T19:54:08.881Z,17.18
2022-11-15T19:56:36.229Z,17.13
2022-11-15T19:59:04.927Z,17.18
2022-11-15T20:01:36.214Z,17.11
2022-11-15T20:04:03.362Z,17.14
2022-11-15T20:06:36.142Z,17.14
2022-11-15T20:09:21.896Z,17.12
2022-11-15T20:11:48.686Z,17.15
2022-11-15T20:14:15.698Z,17.15
2022-11-15T20:16:42.682Z,17.08
2022-11-15T20:19:09.776Z,17.10
2022-11-15T20:21:36.458Z,17.15
2022-11-15T20:24:04.190Z,17.15
2022-11-15T20:26:32.328Z,17.20
2022-11-15T20:29:01.169Z,17.29
2022-11-15T20:31:28.625Z,17.34
2022-11-15T20:33:55.668Z,17.37
2022-11-15T20:36:22.830Z,17.39
2022-11-15T20:38:49.585Z,17.40
2022-11-15T20:41:16.577Z,17.39
2022-11-15T20:43:43.816Z,17.41
2022-11-15T20:46:29.367Z,17.39
2022-11-15T20:48:56.289Z,17.45
2022-11-15T20:51:23.005Z,17.43
2022-11-15T20:53:50.230Z,17.40
2022-11-15T20:56:20.004Z,17.46
2022-11-15T20:58:47.314Z,17.46
2022-11-15T21:01:15.787Z,17.54
2022-11-15T21:03:43.201Z,17.53
2022-11-15T21:06:11.156Z,17.50
2022-11-15T21:08:57.480Z,17.51
2022-11-15T21:11:43.581Z,17.44
2022-11-15T21:14:10.400Z,17.51
2022-11-15T21:16:37.969Z,17.44
2022-11-15T21:19:06.006Z,17.44
2022-11-15T21:21:32.980Z,17.43
2022-11-15T21:24:00.055Z,17.47
2022-11-15T21:26:26.794Z,17.52
2022-11-15T21:28:53.511Z,17.43
2022-11-15T21:31:20.658Z,17.45
2022-11-15T21:33:47.640Z,17.49
2022-11-15T21:36:14.906Z,17.39
2022-11-15T21:38:41.881Z,17.30
2022-11-15T21:41:08.843Z,17.28
2022-11-15T21:43:35.778Z,17.23
2022-11-15T21:46:04.872Z,17.19
2022-11-15T21:48:33.542Z,17.16
2022-11-15T21:51:02.850Z,17.16
2022-11-15T21:53:30.249Z,17.26
2022-11-15T21:55:57.631Z,17.22
2022-11-15T21:58:24.754Z,17.28
2022-11-15T22:01:10.508Z,17.14
2022-11-15T22:03:37.280Z,17.06
2022-11-15T22:06:06.960Z,17.03
2022-11-15T22:08:52.175Z,17.06
2022-11-15T22:11:19.061Z,17.02
2022-11-15T22:13:46.018Z,17.03
2022-11-15T22:16:12.872Z,17.02
2022-11-15T22:18:39.924Z,17.07
2022-11-15T22:21:13.455Z,16.98
2022-11-15T22:23:41.278Z,16.92
2022-11-15T22:26:11.715Z,16.96
2022-11-15T22:28:38.701Z,16.91
2022-11-15T22:31:05.579Z,16.87
2022-11-15T22:33:34.456Z,16.85
2022-11-15T22:36:01.762Z,16.85
2022-11-15T22:38:29.346Z,16.76
2022-11-15T22:40:56.637Z,16.72
2022-11-15T22:43:24.783Z,16.72
2022-11-15T22:45:51.425Z,16.68
2022-11-15T22:48:20.430Z,16.68
2022-11-15T22:50:47.319Z,16.70
2022-11-15T22:53:14.347Z,16.59
2022-11-15T22:55:41.595Z,16.59
2022-11-15T22:58:09.077Z,16.58
2022-11-15T23:00:36.259Z,16.65
2022-11-15T23:03:05.756Z,16.56
2022-11-15T23:05:32.725Z,16.60
2022-11-15T23:08:18.044Z,16.51
2022-11-15T23:11:03.805Z,16.53
2022-11-15T23:13:32.018Z,16.49
2022-11-15T23:16:23.559Z,16.45
2022-11-15T23:18:55.988Z,16.48
2022-11-15T23:21:47.628Z,16.42
2022-11-15T23:24:17.901Z,16.38
2022-11-15T23:26:46.793Z,16.39
2022-11-15T23:29:16.273Z,16.35
2022-11-15T23:32:05.834Z,16.35
2022-11-15T23:34:35.982Z,16.34
2022-11-15T23:37:03.756Z,16.32
2022-11-15T23:39:30.770Z,16.29
2022-11-15T23:41:57.653Z,16.28
2022-11-15T23:44:24.846Z,16.23
2022-11-15T23:46:52.066Z,16.25
2022-11-15T23:49:19.407Z,16.21
2022-11-15T23:51:46.161Z,16.21
2022-11-15T23:54:13.477Z,16.20
2022-11-15T23:56:40.615Z,16.16
2022-11-15T23:59:07.702Z,16.15
